sensor_id;sensor_type;location;lat;lon;timestamp;P1;durP1;ratioP1;P2;durP2;ratioP2
50789;SDS011;37287;47.554;7.844;2024-03-08T00:00:01;42.97;;;25.98;;
50789;SDS011;37287;47.554;7.844;2024-03-08T00:02:41;43.72;;;27.48;;
50789;SDS011;37287;47.554;7.844;2024-03-08T00:05:09;42.63;;;26.60;;
50789;SDS011;37287;47.554;7.844;2024-03-08T00:07:36;40.85;;;26.63;;
50789;SDS011;37287;47.554;7.844;2024-03-08T00:10:07;42.47;;;24.58;;
50789;SDS011;37287;47.554;7.844;2024-03-08T00:12:40;43.05;;;24.95;;
50789;SDS011;37287;47.554;7.844;2024-03-08T00:15:15;39.70;;;24.83;;
50789;SDS011;37287;47.554;7.844;2024-03-08T00:17:45;38.78;;;26.13;;
50789;SDS011;37287;47.554;7.844;2024-03-08T00:20:14;39.47;;;23.67;;
50789;SDS011;37287;47.554;7.844;2024-03-08T00:22:41;42.65;;;26.33;;
50789;SDS011;37287;47.554;7.844;2024-03-08T00:25:08;40.90;;;26.35;;
50789;SDS011;37287;47.554;7.844;2024-03-08T00:27:36;41.88;;;25.00;;
50789;SDS011;37287;47.554;7.844;2024-03-08T00:30:03;43.80;;;25.90;;
50789;SDS011;37287;47.554;7.844;2024-03-08T00:32:30;43.03;;;25.30;;
50789;SDS011;37287;47.554;7.844;2024-03-08T00:34:58;38.25;;;21.92;;
50789;SDS011;37287;47.554;7.844;2024-03-08T00:37:25;38.15;;;23.27;;
50789;SDS011;37287;47.554;7.844;2024-03-08T00:39:52;40.45;;;22.88;;
50789;SDS011;37287;47.554;7.844;2024-03-08T00:42:19;36.30;;;22.33;;
50789;SDS011;37287;47.554;7.844;2024-03-08T00:44:46;35.53;;;22.63;;
50789;SDS011;37287;47.554;7.844;2024-03-08T00:47:14;38.00;;;24.52;;
50789;SDS011;37287;47.554;7.844;2024-03-08T00:49:41;41.53;;;25.77;;
50789;SDS011;37287;47.554;7.844;2024-03-08T00:52:08;36.60;;;23.52;;
50789;SDS011;37287;47.554;7.844;2024-03-08T00:54:36;35.38;;;23.55;;
50789;SDS011;37287;47.554;7.844;2024-03-08T00:57:04;49.83;;;28.70;;
50789;SDS011;37287;47.554;7.844;2024-03-08T00:59:31;49.53;;;28.50;;
50789;SDS011;37287;47.554;7.844;2024-03-08T01:02:01;43.72;;;26.27;;
50789;SDS011;37287;47.554;7.844;2024-03-08T01:04:28;45.92;;;27.70;;
50789;SDS011;37287;47.554;7.844;2024-03-08T01:06:56;55.08;;;30.23;;
50789;SDS011;37287;47.554;7.844;2024-03-08T01:09:24;46.58;;;29.02;;
50789;SDS011;37287;47.554;7.844;2024-03-08T01:11:51;50.20;;;27.80;;
50789;SDS011;37287;47.554;7.844;2024-03-08T01:14:21;58.35;;;32.65;;
50789;SDS011;37287;47.554;7.844;2024-03-08T01:16:49;43.55;;;27.63;;
50789;SDS011;37287;47.554;7.844;2024-03-08T01:19:16;40.22;;;25.88;;
50789;SDS011;37287;47.554;7.844;2024-03-08T01:21:42;46.40;;;26.67;;
50789;SDS011;37287;47.554;7.844;2024-03-08T01:24:09;41.78;;;26.17;;
50789;SDS011;37287;47.554;7.844;2024-03-08T01:26:36;41.63;;;26.45;;
50789;SDS011;37287;47.554;7.844;2024-03-08T01:29:03;41.25;;;25.50;;
50789;SDS011;37287;47.554;7.844;2024-03-08T01:31:30;40.65;;;23.08;;
50789;SDS011;37287;47.554;7.844;2024-03-08T01:34:00;37.53;;;23.77;;
50789;SDS011;37287;47.554;7.844;2024-03-08T01:36:27;35.78;;;22.30;;
50789;SDS011;37287;47.554;7.844;2024-03-08T01:38:54;37.95;;;23.77;;
50789;SDS011;37287;47.554;7.844;2024-03-08T01:41:21;42.22;;;25.27;;
50789;SDS011;37287;47.554;7.844;2024-03-08T01:43:48;41.67;;;25.83;;
50789;SDS011;37287;47.554;7.844;2024-03-08T01:46:17;40.50;;;25.85;;
50789;SDS011;37287;47.554;7.844;2024-03-08T01:48:48;34.88;;;22.05;;
50789;SDS011;37287;47.554;7.844;2024-03-08T01:51:18;36.45;;;23.98;;
50789;SDS011;37287;47.554;7.844;2024-03-08T01:53:46;42.40;;;25.67;;
50789;SDS011;37287;47.554;7.844;2024-03-08T01:56:13;54.33;;;26.25;;
50789;SDS011;37287;47.554;7.844;2024-03-08T01:58:41;40.50;;;25.42;;
50789;SDS011;37287;47.554;7.844;2024-03-08T02:01:11;40.13;;;25.08;;
50789;SDS011;37287;47.554;7.844;2024-03-08T02:03:42;49.35;;;29.40;;
50789;SDS011;37287;47.554;7.844;2024-03-08T02:06:13;45.38;;;27.73;;
50789;SDS011;37287;47.554;7.844;2024-03-08T02:08:43;42.08;;;26.92;;
50789;SDS011;37287;47.554;7.844;2024-03-08T02:11:11;42.53;;;26.67;;
50789;SDS011;37287;47.554;7.844;2024-03-08T02:13:39;42.95;;;27.15;;
50789;SDS011;37287;47.554;7.844;2024-03-08T02:16:06;43.63;;;26.40;;
50789;SDS011;37287;47.554;7.844;2024-03-08T02:18:35;44.40;;;28.13;;
50789;SDS011;37287;47.554;7.844;2024-03-08T02:21:02;38.08;;;23.65;;
50789;SDS011;37287;47.554;7.844;2024-03-08T02:23:31;45.72;;;28.83;;
50789;SDS011;37287;47.554;7.844;2024-03-08T02:25:59;41.75;;;25.95;;
50789;SDS011;37287;47.554;7.844;2024-03-08T02:28:25;45.60;;;28.02;;
50789;SDS011;37287;47.554;7.844;2024-03-08T02:30:52;40.85;;;25.85;;
50789;SDS011;37287;47.554;7.844;2024-03-08T02:33:23;39.13;;;22.75;;
50789;SDS011;37287;47.554;7.844;2024-03-08T02:35:51;40.60;;;24.85;;
50789;SDS011;37287;47.554;7.844;2024-03-08T02:38:18;38.92;;;24.17;;
50789;SDS011;37287;47.554;7.844;2024-03-08T02:40:50;32.08;;;21.52;;
50789;SDS011;37287;47.554;7.844;2024-03-08T02:43:19;39.47;;;25.33;;
50789;SDS011;37287;47.554;7.844;2024-03-08T02:45:49;40.70;;;24.52;;
50789;SDS011;37287;47.554;7.844;2024-03-08T02:48:16;36.83;;;21.15;;
50789;SDS011;37287;47.554;7.844;2024-03-08T02:50:43;34.90;;;21.25;;
50789;SDS011;37287;47.554;7.844;2024-03-08T02:53:12;42.55;;;23.83;;
50789;SDS011;37287;47.554;7.844;2024-03-08T02:55:39;37.65;;;23.60;;
50789;SDS011;37287;47.554;7.844;2024-03-08T02:58:07;42.20;;;24.42;;
50789;SDS011;37287;47.554;7.844;2024-03-08T03:00:37;35.17;;;22.20;;
50789;SDS011;37287;47.554;7.844;2024-03-08T03:03:06;36.47;;;22.70;;
50789;SDS011;37287;47.554;7.844;2024-03-08T03:05:33;33.13;;;20.63;;
50789;SDS011;37287;47.554;7.844;2024-03-08T03:08:00;33.80;;;20.38;;
50789;SDS011;37287;47.554;7.844;2024-03-08T03:10:27;29.00;;;18.38;;
50789;SDS011;37287;47.554;7.844;2024-03-08T03:12:54;30.77;;;18.80;;
50789;SDS011;37287;47.554;7.844;2024-03-08T03:15:20;28.52;;;18.40;;
50789;SDS011;37287;47.554;7.844;2024-03-08T03:17:51;30.67;;;19.10;;
50789;SDS011;37287;47.554;7.844;2024-03-08T03:20:18;28.35;;;16.30;;
50789;SDS011;37287;47.554;7.844;2024-03-08T03:22:59;37.80;;;22.13;;
50789;SDS011;37287;47.554;7.844;2024-03-08T03:25:29;35.80;;;22.20;;
50789;SDS011;37287;47.554;7.844;2024-03-08T03:28:02;40.45;;;21.55;;
50789;SDS011;37287;47.554;7.844;2024-03-08T03:30:29;32.30;;;20.75;;
50789;SDS011;37287;47.554;7.844;2024-03-08T03:33:02;32.92;;;19.48;;
50789;SDS011;37287;47.554;7.844;2024-03-08T03:35:34;36.65;;;22.27;;
50789;SDS011;37287;47.554;7.844;2024-03-08T03:38:03;42.13;;;24.05;;
50789;SDS011;37287;47.554;7.844;2024-03-08T03:40:36;39.53;;;23.45;;
50789;SDS011;37287;47.554;7.844;2024-03-08T03:43:04;36.22;;;21.67;;
50789;SDS011;37287;47.554;7.844;2024-03-08T03:45:31;33.97;;;20.83;;
50789;SDS011;37287;47.554;7.844;2024-03-08T03:48:04;38.60;;;23.35;;
50789;SDS011;37287;47.554;7.844;2024-03-08T03:50:38;36.38;;;22.52;;
50789;SDS011;37287;47.554;7.844;2024-03-08T03:53:06;37.30;;;21.65;;
50789;SDS011;37287;47.554;7.844;2024-03-08T03:55:36;47.13;;;24.90;;
50789;SDS011;37287;47.554;7.844;2024-03-08T03:58:06;37.17;;;21.95;;
50789;SDS011;37287;47.554;7.844;2024-03-08T04:00:33;33.47;;;21.17;;
50789;SDS011;37287;47.554;7.844;2024-03-08T04:03:00;34.22;;;19.75;;
50789;SDS011;37287;47.554;7.844;2024-03-08T04:05:28;34.53;;;20.42;;
50789;SDS011;37287;47.554;7.844;2024-03-08T04:07:55;45.38;;;25.75;;
50789;SDS011;37287;47.554;7.844;2024-03-08T04:10:22;35.03;;;21.92;;
50789;SDS011;37287;47.554;7.844;2024-03-08T04:12:48;34.83;;;20.75;;
50789;SDS011;37287;47.554;7.844;2024-03-08T04:15:15;34.35;;;20.70;;
50789;SDS011;37287;47.554;7.844;2024-03-08T04:17:42;33.63;;;22.55;;
50789;SDS011;37287;47.554;7.844;2024-03-08T04:20:09;34.63;;;20.98;;
50789;SDS011;37287;47.554;7.844;2024-03-08T04:22:37;36.80;;;22.48;;
50789;SDS011;37287;47.554;7.844;2024-03-08T04:25:06;30.80;;;20.00;;
50789;SDS011;37287;47.554;7.844;2024-03-08T04:27:33;33.05;;;20.20;;
50789;SDS011;37287;47.554;7.844;2024-03-08T04:30:01;37.58;;;22.42;;
50789;SDS011;37287;47.554;7.844;2024-03-08T04:32:28;31.23;;;19.42;;
50789;SDS011;37287;47.554;7.844;2024-03-08T04:34:56;33.80;;;20.58;;
50789;SDS011;37287;47.554;7.844;2024-03-08T04:37:23;29.13;;;18.48;;
50789;SDS011;37287;47.554;7.844;2024-03-08T04:39:51;35.63;;;21.33;;
50789;SDS011;37287;47.554;7.844;2024-03-08T04:42:18;35.38;;;20.52;;
50789;SDS011;37287;47.554;7.844;2024-03-08T04:44:45;32.40;;;19.58;;
50789;SDS011;37287;47.554;7.844;2024-03-08T04:47:12;31.35;;;21.40;;
50789;SDS011;37287;47.554;7.844;2024-03-08T04:49:38;41.25;;;25.92;;
50789;SDS011;37287;47.554;7.844;2024-03-08T04:52:05;36.28;;;23.77;;
50789;SDS011;37287;47.554;7.844;2024-03-08T04:54:33;36.72;;;24.27;;
50789;SDS011;37287;47.554;7.844;2024-03-08T04:57:01;38.25;;;23.38;;
50789;SDS011;37287;47.554;7.844;2024-03-08T04:59:32;40.72;;;23.02;;
50789;SDS011;37287;47.554;7.844;2024-03-08T05:01:59;39.17;;;24.70;;
50789;SDS011;37287;47.554;7.844;2024-03-08T05:04:25;35.45;;;22.33;;
50789;SDS011;37287;47.554;7.844;2024-03-08T05:06:52;37.13;;;24.08;;
50789;SDS011;37287;47.554;7.844;2024-03-08T05:09:20;38.38;;;22.92;;
50789;SDS011;37287;47.554;7.844;2024-03-08T05:11:47;38.75;;;23.85;;
50789;SDS011;37287;47.554;7.844;2024-03-08T05:14:14;38.28;;;22.13;;
50789;SDS011;37287;47.554;7.844;2024-03-08T05:16:47;35.35;;;21.02;;
50789;SDS011;37287;47.554;7.844;2024-03-08T05:19:17;31.65;;;20.15;;
50789;SDS011;37287;47.554;7.844;2024-03-08T05:21:45;34.17;;;21.33;;
50789;SDS011;37287;47.554;7.844;2024-03-08T05:24:15;34.85;;;20.75;;
50789;SDS011;37287;47.554;7.844;2024-03-08T05:26:43;32.30;;;20.10;;
50789;SDS011;37287;47.554;7.844;2024-03-08T05:29:10;30.88;;;19.20;;
50789;SDS011;37287;47.554;7.844;2024-03-08T05:34:16;38.92;;;23.98;;
50789;SDS011;37287;47.554;7.844;2024-03-08T05:36:43;31.33;;;20.38;;
50789;SDS011;37287;47.554;7.844;2024-03-08T05:39:14;32.53;;;19.60;;
50789;SDS011;37287;47.554;7.844;2024-03-08T05:41:42;41.83;;;22.55;;
50789;SDS011;37287;47.554;7.844;2024-03-08T05:44:09;36.50;;;22.73;;
50789;SDS011;37287;47.554;7.844;2024-03-08T05:46:36;34.63;;;23.02;;
50789;SDS011;37287;47.554;7.844;2024-03-08T05:49:04;36.40;;;22.35;;
50789;SDS011;37287;47.554;7.844;2024-03-08T05:51:37;34.97;;;21.48;;
50789;SDS011;37287;47.554;7.844;2024-03-08T05:54:12;34.45;;;19.70;;
50789;SDS011;37287;47.554;7.844;2024-03-08T05:56:43;31.70;;;19.58;;
50789;SDS011;37287;47.554;7.844;2024-03-08T05:59:12;42.20;;;20.00;;
50789;SDS011;37287;47.554;7.844;2024-03-08T06:01:40;34.17;;;21.70;;
50789;SDS011;37287;47.554;7.844;2024-03-08T06:04:08;31.70;;;20.35;;
50789;SDS011;37287;47.554;7.844;2024-03-08T06:06:38;31.77;;;20.08;;
50789;SDS011;37287;47.554;7.844;2024-03-08T06:09:06;27.88;;;17.90;;
50789;SDS011;37287;47.554;7.844;2024-03-08T06:11:35;29.85;;;19.63;;
50789;SDS011;37287;47.554;7.844;2024-03-08T06:14:04;30.88;;;17.83;;
50789;SDS011;37287;47.554;7.844;2024-03-08T06:16:30;31.05;;;19.65;;
50789;SDS011;37287;47.554;7.844;2024-03-08T06:18:57;32.92;;;20.83;;
50789;SDS011;37287;47.554;7.844;2024-03-08T06:21:24;29.20;;;18.50;;
50789;SDS011;37287;47.554;7.844;2024-03-08T06:23:54;33.63;;;19.90;;
50789;SDS011;37287;47.554;7.844;2024-03-08T06:26:21;29.52;;;19.33;;
50789;SDS011;37287;47.554;7.844;2024-03-08T06:28:48;29.15;;;17.75;;
50789;SDS011;37287;47.554;7.844;2024-03-08T06:31:15;32.15;;;19.10;;
50789;SDS011;37287;47.554;7.844;2024-03-08T06:33:42;35.55;;;21.95;;
50789;SDS011;37287;47.554;7.844;2024-03-08T06:36:09;29.63;;;19.55;;
50789;SDS011;37287;47.554;7.844;2024-03-08T06:38:38;27.50;;;18.77;;
50789;SDS011;37287;47.554;7.844;2024-03-08T06:41:09;32.95;;;19.52;;
50789;SDS011;37287;47.554;7.844;2024-03-08T06:43:44;29.02;;;17.65;;
50789;SDS011;37287;47.554;7.844;2024-03-08T06:46:12;30.13;;;19.77;;
50789;SDS011;37287;47.554;7.844;2024-03-08T06:48:39;31.30;;;19.98;;
50789;SDS011;37287;47.554;7.844;2024-03-08T06:51:06;32.58;;;19.98;;
50789;SDS011;37287;47.554;7.844;2024-03-08T06:53:34;34.90;;;21.92;;
50789;SDS011;37287;47.554;7.844;2024-03-08T06:56:02;35.83;;;20.85;;
50789;SDS011;37287;47.554;7.844;2024-03-08T06:58:28;33.05;;;20.67;;
50789;SDS011;37287;47.554;7.844;2024-03-08T07:00:55;37.38;;;21.40;;
50789;SDS011;37287;47.554;7.844;2024-03-08T07:03:27;37.42;;;20.58;;
50789;SDS011;37287;47.554;7.844;2024-03-08T07:05:56;39.08;;;21.50;;
50789;SDS011;37287;47.554;7.844;2024-03-08T07:08:26;33.92;;;21.30;;
50789;SDS011;37287;47.554;7.844;2024-03-08T07:10:53;35.28;;;21.10;;
50789;SDS011;37287;47.554;7.844;2024-03-08T07:13:21;35.05;;;20.73;;
50789;SDS011;37287;47.554;7.844;2024-03-08T07:15:48;36.50;;;22.15;;
50789;SDS011;37287;47.554;7.844;2024-03-08T07:18:14;35.53;;;22.13;;
50789;SDS011;37287;47.554;7.844;2024-03-08T07:20:41;34.25;;;21.83;;
50789;SDS011;37287;47.554;7.844;2024-03-08T07:23:10;33.55;;;20.50;;
50789;SDS011;37287;47.554;7.844;2024-03-08T07:25:37;35.08;;;20.33;;
50789;SDS011;37287;47.554;7.844;2024-03-08T07:28:05;36.17;;;21.15;;
50789;SDS011;37287;47.554;7.844;2024-03-08T07:30:37;35.08;;;20.65;;
50789;SDS011;37287;47.554;7.844;2024-03-08T07:33:10;29.60;;;18.25;;
50789;SDS011;37287;47.554;7.844;2024-03-08T07:35:39;31.35;;;20.02;;
50789;SDS011;37287;47.554;7.844;2024-03-08T07:38:07;29.88;;;17.92;;
50789;SDS011;37287;47.554;7.844;2024-03-08T07:40:36;33.10;;;20.33;;
50789;SDS011;37287;47.554;7.844;2024-03-08T07:43:06;38.65;;;22.13;;
50789;SDS011;37287;47.554;7.844;2024-03-08T07:45:35;33.90;;;21.42;;
50789;SDS011;37287;47.554;7.844;2024-03-08T07:48:02;29.60;;;18.90;;
50789;SDS011;37287;47.554;7.844;2024-03-08T07:50:30;31.02;;;19.23;;
50789;SDS011;37287;47.554;7.844;2024-03-08T07:52:57;28.88;;;17.95;;
50789;SDS011;37287;47.554;7.844;2024-03-08T07:55:24;28.17;;;18.40;;
50789;SDS011;37287;47.554;7.844;2024-03-08T07:57:53;30.85;;;19.08;;
50789;SDS011;37287;47.554;7.844;2024-03-08T08:00:20;26.52;;;17.58;;
50789;SDS011;37287;47.554;7.844;2024-03-08T08:02:48;26.63;;;17.40;;
50789;SDS011;37287;47.554;7.844;2024-03-08T08:05:16;30.95;;;19.45;;
50789;SDS011;37287;47.554;7.844;2024-03-08T08:07:44;33.53;;;19.73;;
50789;SDS011;37287;47.554;7.844;2024-03-08T08:10:18;35.05;;;20.83;;
50789;SDS011;37287;47.554;7.844;2024-03-08T08:12:48;34.58;;;20.52;;
50789;SDS011;37287;47.554;7.844;2024-03-08T08:15:15;33.42;;;20.75;;
50789;SDS011;37287;47.554;7.844;2024-03-08T08:17:42;31.70;;;19.95;;
50789;SDS011;37287;47.554;7.844;2024-03-08T08:20:09;31.60;;;19.88;;
50789;SDS011;37287;47.554;7.844;2024-03-08T08:22:42;31.58;;;20.08;;
50789;SDS011;37287;47.554;7.844;2024-03-08T08:25:12;35.65;;;22.15;;
50789;SDS011;37287;47.554;7.844;2024-03-08T08:27:40;34.20;;;21.48;;
50789;SDS011;37287;47.554;7.844;2024-03-08T08:30:06;38.80;;;21.80;;
50789;SDS011;37287;47.554;7.844;2024-03-08T08:32:35;33.55;;;20.83;;
50789;SDS011;37287;47.554;7.844;2024-03-08T08:35:12;37.53;;;20.38;;
50789;SDS011;37287;47.554;7.844;2024-03-08T08:37:39;33.28;;;20.70;;
50789;SDS011;37287;47.554;7.844;2024-03-08T08:40:06;29.15;;;18.50;;
50789;SDS011;37287;47.554;7.844;2024-03-08T08:42:41;31.98;;;19.50;;
50789;SDS011;37287;47.554;7.844;2024-03-08T08:45:08;34.05;;;20.48;;
50789;SDS011;37287;47.554;7.844;2024-03-08T08:47:43;34.03;;;20.05;;
50789;SDS011;37287;47.554;7.844;2024-03-08T08:50:13;29.92;;;18.92;;
50789;SDS011;37287;47.554;7.844;2024-03-08T08:52:40;31.05;;;20.45;;
50789;SDS011;37287;47.554;7.844;2024-03-08T08:55:10;35.53;;;21.15;;
50789;SDS011;37287;47.554;7.844;2024-03-08T08:57:41;39.38;;;22.17;;
50789;SDS011;37287;47.554;7.844;2024-03-08T09:00:08;31.60;;;21.20;;
50789;SDS011;37287;47.554;7.844;2024-03-08T09:02:41;30.27;;;19.70;;
50789;SDS011;37287;47.554;7.844;2024-03-08T09:05:09;33.85;;;20.63;;
50789;SDS011;37287;47.554;7.844;2024-03-08T09:07:35;32.13;;;20.67;;
50789;SDS011;37287;47.554;7.844;2024-03-08T09:10:03;32.28;;;19.88;;
50789;SDS011;37287;47.554;7.844;2024-03-08T09:12:33;30.33;;;20.35;;
50789;SDS011;37287;47.554;7.844;2024-03-08T09:15:00;27.98;;;18.85;;
50789;SDS011;37287;47.554;7.844;2024-03-08T09:17:26;30.95;;;20.35;;
50789;SDS011;37287;47.554;7.844;2024-03-08T09:19:53;30.67;;;19.83;;
50789;SDS011;37287;47.554;7.844;2024-03-08T09:22:20;33.90;;;19.73;;
50789;SDS011;37287;47.554;7.844;2024-03-08T09:24:47;30.83;;;19.98;;
50789;SDS011;37287;47.554;7.844;2024-03-08T09:27:14;28.80;;;19.02;;
50789;SDS011;37287;47.554;7.844;2024-03-08T09:29:40;31.67;;;20.73;;
50789;SDS011;37287;47.554;7.844;2024-03-08T09:32:07;34.25;;;20.83;;
50789;SDS011;37287;47.554;7.844;2024-03-08T09:34:34;33.42;;;21.70;;
50789;SDS011;37287;47.554;7.844;2024-03-08T09:37:04;33.42;;;21.02;;
50789;SDS011;37287;47.554;7.844;2024-03-08T09:39:31;28.02;;;18.55;;
50789;SDS011;37287;47.554;7.844;2024-03-08T09:42:00;32.85;;;21.00;;
50789;SDS011;37287;47.554;7.844;2024-03-08T09:44:27;34.15;;;21.55;;
50789;SDS011;37287;47.554;7.844;2024-03-08T09:46:57;30.55;;;19.65;;
50789;SDS011;37287;47.554;7.844;2024-03-08T09:49:25;35.10;;;21.63;;
50789;SDS011;37287;47.554;7.844;2024-03-08T09:51:52;30.40;;;19.45;;
50789;SDS011;37287;47.554;7.844;2024-03-08T09:54:19;33.78;;;21.48;;
50789;SDS011;37287;47.554;7.844;2024-03-08T09:56:50;30.70;;;19.25;;
50789;SDS011;37287;47.554;7.844;2024-03-08T09:59:18;28.15;;;18.35;;
50789;SDS011;37287;47.554;7.844;2024-03-08T10:01:54;29.98;;;19.55;;
50789;SDS011;37287;47.554;7.844;2024-03-08T10:04:25;30.45;;;19.75;;
50789;SDS011;37287;47.554;7.844;2024-03-08T10:06:55;31.65;;;20.38;;
50789;SDS011;37287;47.554;7.844;2024-03-08T10:09:23;33.03;;;18.92;;
50789;SDS011;37287;47.554;7.844;2024-03-08T10:11:53;31.80;;;20.40;;
50789;SDS011;37287;47.554;7.844;2024-03-08T10:14:22;28.60;;;18.45;;
50789;SDS011;37287;47.554;7.844;2024-03-08T10:16:48;27.30;;;18.27;;
50789;SDS011;37287;47.554;7.844;2024-03-08T10:19:15;28.75;;;17.92;;
50789;SDS011;37287;47.554;7.844;2024-03-08T10:21:52;29.52;;;18.83;;
50789;SDS011;37287;47.554;7.844;2024-03-08T10:24:23;28.48;;;17.92;;
50789;SDS011;37287;47.554;7.844;2024-03-08T10:26:53;26.80;;;18.85;;
50789;SDS011;37287;47.554;7.844;2024-03-08T10:29:25;26.98;;;17.73;;
50789;SDS011;37287;47.554;7.844;2024-03-08T10:31:52;28.55;;;19.23;;
50789;SDS011;37287;47.554;7.844;2024-03-08T10:34:19;29.35;;;17.83;;
50789;SDS011;37287;47.554;7.844;2024-03-08T10:36:46;24.10;;;17.02;;
50789;SDS011;37287;47.554;7.844;2024-03-08T10:39:21;23.48;;;16.38;;
50789;SDS011;37287;47.554;7.844;2024-03-08T10:41:52;22.48;;;15.35;;
50789;SDS011;37287;47.554;7.844;2024-03-08T10:44:32;23.83;;;15.10;;
50789;SDS011;37287;47.554;7.844;2024-03-08T10:47:18;23.00;;;15.93;;
50789;SDS011;37287;47.554;7.844;2024-03-08T10:49:51;28.85;;;17.85;;
50789;SDS011;37287;47.554;7.844;2024-03-08T10:52:21;26.83;;;17.95;;
50789;SDS011;37287;47.554;7.844;2024-03-08T10:54:49;30.15;;;18.77;;
50789;SDS011;37287;47.554;7.844;2024-03-08T10:57:20;25.23;;;17.13;;
50789;SDS011;37287;47.554;7.844;2024-03-08T10:59:50;26.48;;;18.17;;
50789;SDS011;37287;47.554;7.844;2024-03-08T11:02:21;25.17;;;17.90;;
50789;SDS011;37287;47.554;7.844;2024-03-08T11:04:49;26.05;;;18.25;;
50789;SDS011;37287;47.554;7.844;2024-03-08T11:07:17;25.20;;;17.95;;
50789;SDS011;37287;47.554;7.844;2024-03-08T11:09:49;26.20;;;17.95;;
50789;SDS011;37287;47.554;7.844;2024-03-08T11:12:19;25.23;;;17.30;;
50789;SDS011;37287;47.554;7.844;2024-03-08T11:14:49;21.35;;;16.75;;
50789;SDS011;37287;47.554;7.844;2024-03-08T11:19:59;25.95;;;17.95;;
50789;SDS011;37287;47.554;7.844;2024-03-08T11:22:32;25.67;;;16.65;;
50789;SDS011;37287;47.554;7.844;2024-03-08T11:25:03;23.85;;;16.00;;
50789;SDS011;37287;47.554;7.844;2024-03-08T11:27:36;22.75;;;17.05;;
50789;SDS011;37287;47.554;7.844;2024-03-08T11:30:04;24.27;;;16.70;;
50789;SDS011;37287;47.554;7.844;2024-03-08T11:32:44;24.58;;;16.52;;
50789;SDS011;37287;47.554;7.844;2024-03-08T11:35:19;22.27;;;16.20;;
50789;SDS011;37287;47.554;7.844;2024-03-08T11:37:47;22.73;;;16.08;;
50789;SDS011;37287;47.554;7.844;2024-03-08T11:40:14;23.35;;;16.38;;
50789;SDS011;37287;47.554;7.844;2024-03-08T11:42:45;21.27;;;16.65;;
50789;SDS011;37287;47.554;7.844;2024-03-08T11:45:15;23.17;;;16.80;;
50789;SDS011;37287;47.554;7.844;2024-03-08T11:47:44;27.33;;;17.67;;
50789;SDS011;37287;47.554;7.844;2024-03-08T11:50:16;24.13;;;18.40;;
50789;SDS011;37287;47.554;7.844;2024-03-08T11:52:45;25.95;;;18.42;;
50789;SDS011;37287;47.554;7.844;2024-03-08T11:55:12;25.13;;;16.80;;
50789;SDS011;37287;47.554;7.844;2024-03-08T11:57:40;25.05;;;18.42;;
50789;SDS011;37287;47.554;7.844;2024-03-08T12:00:14;23.95;;;17.50;;
50789;SDS011;37287;47.554;7.844;2024-03-08T12:03:04;23.00;;;16.63;;
50789;SDS011;37287;47.554;7.844;2024-03-08T12:05:32;22.10;;;16.52;;
50789;SDS011;37287;47.554;7.844;2024-03-08T12:08:00;26.17;;;19.65;;
50789;SDS011;37287;47.554;7.844;2024-03-08T12:10:28;28.40;;;18.80;;
50789;SDS011;37287;47.554;7.844;2024-03-08T12:12:57;26.42;;;18.60;;
50789;SDS011;37287;47.554;7.844;2024-03-08T12:15:29;28.25;;;19.42;;
50789;SDS011;37287;47.554;7.844;2024-03-08T12:17:59;26.13;;;19.10;;
50789;SDS011;37287;47.554;7.844;2024-03-08T12:20:27;27.75;;;18.65;;
50789;SDS011;37287;47.554;7.844;2024-03-08T12:22:56;23.17;;;16.90;;
50789;SDS011;37287;47.554;7.844;2024-03-08T12:25:30;24.65;;;18.27;;
50789;SDS011;37287;47.554;7.844;2024-03-08T12:28:07;26.65;;;18.35;;
50789;SDS011;37287;47.554;7.844;2024-03-08T12:30:49;23.02;;;16.63;;
50789;SDS011;37287;47.554;7.844;2024-03-08T12:33:19;24.88;;;17.70;;
50789;SDS011;37287;47.554;7.844;2024-03-08T12:35:50;26.63;;;18.05;;
50789;SDS011;37287;47.554;7.844;2024-03-08T12:38:22;21.73;;;16.48;;
50789;SDS011;37287;47.554;7.844;2024-03-08T12:40:57;25.55;;;17.05;;
50789;SDS011;37287;47.554;7.844;2024-03-08T12:43:25;26.15;;;16.85;;
50789;SDS011;37287;47.554;7.844;2024-03-08T12:45:52;22.85;;;17.35;;
50789;SDS011;37287;47.554;7.844;2024-03-08T12:48:19;24.25;;;16.38;;
50789;SDS011;37287;47.554;7.844;2024-03-08T12:50:47;24.98;;;17.52;;
50789;SDS011;37287;47.554;7.844;2024-03-08T12:53:14;25.13;;;16.23;;
50789;SDS011;37287;47.554;7.844;2024-03-08T12:55:41;22.45;;;16.52;;
50789;SDS011;37287;47.554;7.844;2024-03-08T12:58:08;23.05;;;16.20;;
50789;SDS011;37287;47.554;7.844;2024-03-08T13:00:35;23.10;;;16.15;;
50789;SDS011;37287;47.554;7.844;2024-03-08T13:03:09;21.63;;;15.52;;
50789;SDS011;37287;47.554;7.844;2024-03-08T13:05:38;24.52;;;16.88;;
50789;SDS011;37287;47.554;7.844;2024-03-08T13:08:06;22.25;;;15.48;;
50789;SDS011;37287;47.554;7.844;2024-03-08T13:10:40;21.70;;;16.00;;
50789;SDS011;37287;47.554;7.844;2024-03-08T13:13:10;26.42;;;15.20;;
50789;SDS011;37287;47.554;7.844;2024-03-08T13:15:40;22.63;;;17.08;;
50789;SDS011;37287;47.554;7.844;2024-03-08T13:18:07;24.10;;;16.13;;
50789;SDS011;37287;47.554;7.844;2024-03-08T13:20:35;24.25;;;16.88;;
50789;SDS011;37287;47.554;7.844;2024-03-08T13:23:13;23.17;;;15.40;;
50789;SDS011;37287;47.554;7.844;2024-03-08T13:25:40;22.00;;;15.55;;
50789;SDS011;37287;47.554;7.844;2024-03-08T13:28:07;22.27;;;16.63;;
50789;SDS011;37287;47.554;7.844;2024-03-08T13:30:35;22.48;;;15.98;;
50789;SDS011;37287;47.554;7.844;2024-03-08T13:33:02;23.30;;;16.83;;
50789;SDS011;37287;47.554;7.844;2024-03-08T13:35:31;23.02;;;16.48;;
50789;SDS011;37287;47.554;7.844;2024-03-08T13:37:59;21.80;;;14.77;;
50789;SDS011;37287;47.554;7.844;2024-03-08T13:40:29;19.42;;;14.65;;
50789;SDS011;37287;47.554;7.844;2024-03-08T13:42:57;20.90;;;15.25;;
50789;SDS011;37287;47.554;7.844;2024-03-08T13:45:24;20.88;;;14.27;;
50789;SDS011;37287;47.554;7.844;2024-03-08T13:47:52;19.55;;;14.43;;
50789;SDS011;37287;47.554;7.844;2024-03-08T13:50:21;17.27;;;13.18;;
50789;SDS011;37287;47.554;7.844;2024-03-08T13:52:49;18.40;;;14.00;;
50789;SDS011;37287;47.554;7.844;2024-03-08T13:55:20;18.80;;;14.75;;
50789;SDS011;37287;47.554;7.844;2024-03-08T13:57:48;19.70;;;14.27;;
50789;SDS011;37287;47.554;7.844;2024-03-08T14:00:15;18.58;;;13.82;;
50789;SDS011;37287;47.554;7.844;2024-03-08T14:02:42;19.80;;;14.50;;
50789;SDS011;37287;47.554;7.844;2024-03-08T14:05:09;19.48;;;13.35;;
50789;SDS011;37287;47.554;7.844;2024-03-08T14:07:38;20.92;;;14.60;;
50789;SDS011;37287;47.554;7.844;2024-03-08T14:10:05;20.88;;;14.98;;
50789;SDS011;37287;47.554;7.844;2024-03-08T14:12:33;18.83;;;13.98;;
50789;SDS011;37287;47.554;7.844;2024-03-08T14:15:01;21.50;;;13.82;;
50789;SDS011;37287;47.554;7.844;2024-03-08T14:17:30;18.40;;;13.63;;
50789;SDS011;37287;47.554;7.844;2024-03-08T14:19:57;23.23;;;14.63;;
50789;SDS011;37287;47.554;7.844;2024-03-08T14:22:25;17.73;;;12.18;;
50789;SDS011;37287;47.554;7.844;2024-03-08T14:24:52;20.38;;;12.90;;
50789;SDS011;37287;47.554;7.844;2024-03-08T14:27:22;18.63;;;13.07;;
50789;SDS011;37287;47.554;7.844;2024-03-08T14:29:49;20.38;;;13.63;;
50789;SDS011;37287;47.554;7.844;2024-03-08T14:32:16;20.58;;;12.65;;
50789;SDS011;37287;47.554;7.844;2024-03-08T14:34:46;23.17;;;13.23;;